createdAt,value
2019-05-02T00:02:40.498Z,94.50
2019-05-02T00:06:47.266Z,94.60
2019-05-02T00:10:52.605Z,94.40
2019-05-02T00:15:02.016Z,95.00
2019-05-02T00:19:03.605Z,94.80
2019-05-02T00:23:08.761Z,94.90
2019-05-02T00:27:14.447Z,95.10
2019-05-02T00:31:20.713Z,95.20
2019-05-02T00:35:26.446Z,95.00
2019-05-02T00:39:31.349Z,95.00
2019-05-02T00:43:36.440Z,94.90
2019-05-02T00:47:57.375Z,95.40
2019-05-02T00:52:03.181Z,95.40
2019-05-02T00:56:09.011Z,95.10
2019-05-02T01:00:18.493Z,95.20
2019-05-02T01:04:27.688Z,95.40
2019-05-02T01:08:35.725Z,95.60
2019-05-02T01:12:39.869Z,95.00
2019-05-02T01:16:49.519Z,95.20
2019-05-02T01:20:52.235Z,95.20
2019-05-02T01:24:56.814Z,95.10
2019-05-02T01:29:18.807Z,94.90
2019-05-02T01:33:45.367Z,94.70
2019-05-02T01:38:14.957Z,94.10
2019-05-02T01:42:19.640Z,93.90
2019-05-02T01:46:24.304Z,94.60
2019-05-02T01:50:33.595Z,94.60
2019-05-02T01:54:35.677Z,94.10
2019-05-02T01:58:40.242Z,93.90
2019-05-02T02:02:44.823Z,94.40
2019-05-02T02:06:49.434Z,93.90
2019-05-02T02:10:56.232Z,93.70
2019-05-02T02:15:00.317Z,93.60
2019-05-02T02:19:12.289Z,93.60
2019-05-02T02:23:37.196Z,93.60
2019-05-02T02:27:41.806Z,93.60
2019-05-02T02:31:48.570Z,93.50
2019-05-02T02:35:53.270Z,93.20
2019-05-02T02:39:57.963Z,93.10
2019-05-02T02:44:20.962Z,93.20
2019-05-02T02:48:25.677Z,93.10
2019-05-02T02:52:30.253Z,93.60
2019-05-02T02:56:40.567Z,94.20
2019-05-02T03:00:41.451Z,94.30
2019-05-02T03:04:47.689Z,93.90
2019-05-02T03:08:52.253Z,93.30
2019-05-02T03:13:21.323Z,93.10
2019-05-02T03:17:25.937Z,92.80
2019-05-02T03:21:27.669Z,92.80
2019-05-02T03:25:49.656Z,93.00
2019-05-02T03:29:43.836Z,93.40
2019-05-02T03:33:55.006Z,93.40
2019-05-02T03:37:53.133Z,93.20
2019-05-02T03:42:02.947Z,93.10
2019-05-02T03:46:06.219Z,92.70
2019-05-02T03:50:10.999Z,92.60
2019-05-02T03:54:19.664Z,92.50
2019-05-02T03:58:22.547Z,92.50
2019-05-02T04:02:27.433Z,92.00
2019-05-02T04:06:32.399Z,91.90
2019-05-02T04:11:20.601Z,91.70
2019-05-02T04:15:28.805Z,91.80
2019-05-02T04:19:34.960Z,91.70
2019-05-02T04:23:40.192Z,91.90
2019-05-02T04:27:45.341Z,91.70
2019-05-02T04:31:49.914Z,91.70
2019-05-02T04:35:59.196Z,91.20
2019-05-02T04:40:03.373Z,91.70
2019-05-02T04:44:09.064Z,91.60
2019-05-02T04:48:13.957Z,91.70
2019-05-02T04:52:21.172Z,91.60
2019-05-02T04:56:25.190Z,91.20
2019-05-02T05:00:29.927Z,90.90
2019-05-02T05:04:42.021Z,90.80
2019-05-02T05:08:41.680Z,90.70
2019-05-02T05:12:48.019Z,90.70
2019-05-02T05:16:55.658Z,91.00
2019-05-02T05:20:59.076Z,90.70
2019-05-02T05:25:12.193Z,90.50
2019-05-02T05:29:19.352Z,90.20
2019-05-02T05:33:21.480Z,90.40
2019-05-02T05:37:27.307Z,90.60
2019-05-02T05:41:32.638Z,90.80
2019-05-02T05:45:48.670Z,91.10
2019-05-02T05:49:44.633Z,91.40
2019-05-02T05:53:52.306Z,90.90
2019-05-02T05:58:06.498Z,91.00
2019-05-02T06:02:05.680Z,90.40
2019-05-02T06:06:10.281Z,90.50
2019-05-02T06:10:15.049Z,90.70
2019-05-02T06:14:19.914Z,90.90
2019-05-02T06:18:28.388Z,90.70
2019-05-02T06:22:32.512Z,90.50
2019-05-02T06:26:37.183Z,90.50
2019-05-02T06:30:41.796Z,90.30
2019-05-02T06:34:47.633Z,90.10
2019-05-02T06:38:56.482Z,90.20
2019-05-02T06:42:58.688Z,90.40
2019-05-02T06:47:04.176Z,90.20
2019-05-02T06:51:10.961Z,90.00
2019-05-02T06:55:17.260Z,89.30
2019-05-02T06:59:21.931Z,90.00
2019-05-02T07:03:27.716Z,89.30
2019-05-02T07:07:36.683Z,89.70
2019-05-02T07:11:40.947Z,90.30
2019-05-02T07:16:04.127Z,90.60
2019-05-02T07:20:09.231Z,90.00
2019-05-02T07:24:14.933Z,90.10
2019-05-02T07:28:19.545Z,90.50
2019-05-02T07:32:26.696Z,90.10
2019-05-02T07:36:36.088Z,90.60
2019-05-02T07:40:37.633Z,90.70
2019-05-02T07:44:42.700Z,90.90
2019-05-02T07:48:48.901Z,91.00
2019-05-02T07:52:54.287Z,91.10
2019-05-02T07:57:02.191Z,91.50
2019-05-02T08:01:08.035Z,91.30
2019-05-02T08:05:15.444Z,91.10
2019-05-02T08:09:18.734Z,91.30
2019-05-02T08:13:23.603Z,91.50
2019-05-02T08:17:28.486Z,91.00
2019-05-02T08:21:33.991Z,90.90
2019-05-02T08:25:41.500Z,91.20
2019-05-02T08:29:45.399Z,91.70
2019-05-02T08:33:50.293Z,91.50
2019-05-02T08:37:56.270Z,91.90
2019-05-02T08:42:02.786Z,91.80
2019-05-02T08:46:14.543Z,92.00
2019-05-02T08:50:17.960Z,91.90
2019-05-02T08:54:22.918Z,91.00
2019-05-02T08:58:27.727Z,90.50
2019-05-02T09:02:41.241Z,90.50
2019-05-02T09:06:38.782Z,90.70
2019-05-02T09:10:43.558Z,90.20
2019-05-02T09:14:48.464Z,89.20
2019-05-02T09:19:15.244Z,89.60
2019-05-02T09:23:19.029Z,89.60
2019-05-02T09:27:24.185Z,90.20
2019-05-02T09:31:28.960Z,89.70
2019-05-02T09:35:33.528Z,90.30
2019-05-02T09:39:38.614Z,90.10
2019-05-02T09:43:43.617Z,87.50
2019-05-02T09:48:01.331Z,88.60
2019-05-02T09:51:59.341Z,88.60
2019-05-02T09:56:02.136Z,88.70
2019-05-02T10:00:13.137Z,87.90
2019-05-02T10:04:18.387Z,88.70
2019-05-02T10:08:23.096Z,88.00
2019-05-02T10:12:27.724Z,87.90
2019-05-02T10:16:32.465Z,90.40
2019-05-02T10:20:37.674Z,87.00
2019-05-02T10:24:42.753Z,87.50
2019-05-02T10:28:50.551Z,86.90
2019-05-02T10:32:57.236Z,88.20
2019-05-02T10:37:00.964Z,88.80
2019-05-02T10:41:06.449Z,89.90
2019-05-02T10:45:16.872Z,88.00
2019-05-02T10:49:27.121Z,87.60
2019-05-02T10:53:32.257Z,86.70
2019-05-02T10:57:37.347Z,86.90
2019-05-02T11:02:02.527Z,86.20
2019-05-02T11:06:09.123Z,87.00
2019-05-02T11:10:14.085Z,87.40
2019-05-02T11:14:28.119Z,86.90
2019-05-02T11:18:52.253Z,87.80
2019-05-02T11:22:55.105Z,86.00
2019-05-02T11:26:59.763Z,86.40
2019-05-02T11:31:06.826Z,87.70
2019-05-02T11:35:12.217Z,87.10
2019-05-02T11:39:26.176Z,85.90
2019-05-02T11:43:24.197Z,85.90
2019-05-02T11:47:29.273Z,87.70
2019-05-02T11:51:34.244Z,86.90
2019-05-02T11:55:41.377Z,86.20
2019-05-02T11:59:46.635Z,84.60
2019-05-02T12:03:52.803Z,85.30
2019-05-02T12:08:00.775Z,86.00
2019-05-02T12:12:04.989Z,85.50
2019-05-02T12:16:12.538Z,85.30
2019-05-02T12:20:17.683Z,85.90
2019-05-02T12:24:22.862Z,84.80
2019-05-02T12:28:27.785Z,84.70
2019-05-02T12:32:33.457Z,83.60
2019-05-02T12:36:38.313Z,84.30
2019-05-02T12:40:43.187Z,85.40
2019-05-02T12:44:48.782Z,86.20
2019-05-02T12:48:53.602Z,86.30
2019-05-02T12:52:58.245Z,87.20
2019-05-02T12:57:02.867Z,86.10
2019-05-02T13:01:12.252Z,85.30
2019-05-02T13:05:17.143Z,85.50
2019-05-02T13:09:23.365Z,85.60
2019-05-02T13:13:28.318Z,85.70
2019-05-02T13:17:35.692Z,84.80
2019-05-02T13:22:12.475Z,84.30
2019-05-02T13:26:21.777Z,83.10
2019-05-02T13:30:32.885Z,84.20
2019-05-02T13:34:48.677Z,84.00
2019-05-02T13:38:54.635Z,84.90
2019-05-02T13:43:01.761Z,85.50
2019-05-02T13:47:08.890Z,85.80
2019-05-02T13:51:13.544Z,84.90
2019-05-02T13:55:23.642Z,83.60
2019-05-02T13:59:28.665Z,82.80
2019-05-02T14:03:33.369Z,81.90
2019-05-02T14:07:38.768Z,81.90
2019-05-02T14:11:50.128Z,82.80
2019-05-02T14:15:54.860Z,82.90
2019-05-02T14:20:08.529Z,82.60
2019-05-02T14:24:06.169Z,83.00
2019-05-02T14:28:12.799Z,83.10
2019-05-02T14:32:23.243Z,82.00
2019-05-02T14:36:23.749Z,84.40
2019-05-02T14:40:32.658Z,85.10
2019-05-02T14:45:01.236Z,84.60
2019-05-02T14:48:45.323Z,84.30
2019-05-02T14:52:51.696Z,84.40
2019-05-02T14:57:11.938Z,82.80
2019-05-02T15:01:17.261Z,82.40
2019-05-02T15:05:27.952Z,82.70
2019-05-02T15:09:32.230Z,81.80
2019-05-02T15:13:41.020Z,82.60
2019-05-02T15:17:43.681Z,82.50
2019-05-02T15:21:54.418Z,82.60
2019-05-02T15:25:56.162Z,84.60
2019-05-02T15:30:06.695Z,84.10
2019-05-02T15:34:15.704Z,82.60
2019-05-02T15:38:27.251Z,82.80
2019-05-02T15:42:26.714Z,83.30
2019-05-02T15:46:31.938Z,82.60
2019-05-02T15:50:43.583Z,82.80
2019-05-02T15:54:43.167Z,82.50
2019-05-02T15:58:48.874Z,82.90
2019-05-02T16:02:56.307Z,83.30
2019-05-02T16:07:04.641Z,83.20
2019-05-02T16:11:08.831Z,82.40
2019-05-02T16:15:21.253Z,83.10
2019-05-02T16:19:24.688Z,83.60
2019-05-02T16:23:32.695Z,83.60
2019-05-02T16:27:46.555Z,83.50
2019-05-02T16:32:05.517Z,83.50
2019-05-02T16:36:12.531Z,82.90
2019-05-02T16:40:22.059Z,83.90
2019-05-02T16:44:24.891Z,85.10
2019-05-02T16:48:32.392Z,86.90
2019-05-02T16:52:38.261Z,86.90
2019-05-02T16:56:45.897Z,86.90
2019-05-02T17:00:49.055Z,86.40
2019-05-02T17:04:54.703Z,86.30
2019-05-02T17:09:18.275Z,86.60
2019-05-02T17:13:27.336Z,86.90
2019-05-02T17:17:31.666Z,85.80
2019-05-02T17:21:52.311Z,85.80
2019-05-02T17:25:42.448Z,85.30
2019-05-02T17:29:47.062Z,85.80
2019-05-02T17:33:52.985Z,85.20
2019-05-02T17:37:58.103Z,85.60
2019-05-02T17:42:03.846Z,85.50
2019-05-02T17:46:12.661Z,85.60
2019-05-02T17:50:32.970Z,86.60
2019-05-02T17:54:37.829Z,87.90
2019-05-02T17:58:47.452Z,88.70
2019-05-02T18:02:51.736Z,89.00
2019-05-02T18:06:55.383Z,89.40
2019-05-02T18:11:02.694Z,89.70
2019-05-02T18:15:08.097Z,90.00
2019-05-02T18:19:15.959Z,90.40
2019-05-02T18:23:25.868Z,90.90
2019-05-02T18:27:25.698Z,91.60
2019-05-02T18:31:34.830Z,92.20
2019-05-02T18:35:42.332Z,92.60
2019-05-02T18:39:49.921Z,92.60
2019-05-02T18:43:52.026Z,92.70
2019-05-02T18:48:02.257Z,92.80
2019-05-02T18:52:03.533Z,92.80
2019-05-02T18:56:08.478Z,93.90
2019-05-02T19:00:13.325Z,92.10
2019-05-02T19:04:18.475Z,91.80
2019-05-02T19:08:31.197Z,92.20
2019-05-02T19:12:29.505Z,91.90
2019-05-02T19:16:34.565Z,92.00
2019-05-02T19:21:08.220Z,91.70
2019-05-02T19:25:14.157Z,91.80
2019-05-02T19:29:28.681Z,91.60
2019-05-02T19:33:37.556Z,91.50
2019-05-02T19:37:44.552Z,91.60
2019-05-02T19:41:46.231Z,91.40
2019-05-02T19:45:54.120Z,91.10
2019-05-02T19:49:58.930Z,91.20
2019-05-02T19:54:06.834Z,91.10
2019-05-02T19:58:10.248Z,91.10
2019-05-02T20:02:15.000Z,91.20
2019-05-02T20:06:22.009Z,91.30
2019-05-02T20:10:53.805Z,91.40
2019-05-02T20:14:55.424Z,91.60
2019-05-02T20:19:01.914Z,91.20
2019-05-02T20:23:15.609Z,91.50
2019-05-02T20:27:13.481Z,91.00
2019-05-02T20:31:21.699Z,91.20
2019-05-02T20:35:26.550Z,91.20
2019-05-02T20:39:31.836Z,91.60
2019-05-02T20:43:37.009Z,92.90
2019-05-02T20:47:42.714Z,93.50
2019-05-02T20:51:51.814Z,93.50
2019-05-02T20:55:59.377Z,94.00
2019-05-02T21:00:06.228Z,95.00
2019-05-02T21:04:18.134Z,95.40
2019-05-02T21:08:41.859Z,95.50
2019-05-02T21:12:47.077Z,95.90
2019-05-02T21:16:51.933Z,96.70
2019-05-02T21:20:57.504Z,96.60
2019-05-02T21:25:04.110Z,96.90
2019-05-02T21:29:09.076Z,96.90
2019-05-02T21:33:37.979Z,97.20
2019-05-02T21:37:42.754Z,96.80
2019-05-02T21:41:49.049Z,96.90
2019-05-02T21:45:53.784Z,97.00
2019-05-02T21:50:21.756Z,97.10
2019-05-02T21:54:48.673Z,97.50
2019-05-02T21:59:09.589Z,97.00
2019-05-02T22:03:14.835Z,96.70
2019-05-02T22:07:21.765Z,96.40
2019-05-02T22:11:26.752Z,95.90
2019-05-02T22:15:32.481Z,95.60
2019-05-02T22:19:37.444Z,95.10
2019-05-02T22:23:42.665Z,94.90
2019-05-02T22:27:47.386Z,94.40
2019-05-02T22:31:54.478Z,94.50
2019-05-02T22:36:01.929Z,93.70
2019-05-02T22:40:10.957Z,94.00
2019-05-02T22:44:15.645Z,94.20
2019-05-02T22:48:22.371Z,93.50
2019-05-02T22:52:26.593Z,91.80
2019-05-02T22:56:31.776Z,92.30
2019-05-02T23:00:37.326Z,92.30
2019-05-02T23:04:42.119Z,91.90
2019-05-02T23:08:47.834Z,91.20
2019-05-02T23:12:52.433Z,90.30
2019-05-02T23:16:58.702Z,90.10
2019-05-02T23:21:04.081Z,89.40
2019-05-02T23:25:42.228Z,88.40
2019-05-02T23:29:47.037Z,87.70
2019-05-02T23:34:02.042Z,89.00
2019-05-02T23:38:12.587Z,88.80
2019-05-02T23:42:18.070Z,89.50
2019-05-02T23:46:24.616Z,90.00
2019-05-02T23:50:29.226Z,90.30
2019-05-02T23:54:48.581Z,90.30
2019-05-02T23:58:43.360Z,90.20
